Time;durP1;ratioP1;P1;durP2;ratioP2;P2;SDS_P1;SDS_P2;PMS_P1;PMS_P2;Temp;Humidity;BMP_temperature;BMP_pressure;BME280_temperature;BME280_humidity;BME280_pressure;Samples;Min_cycle;Max_cycle;Signal;HPM_P1;HPM_P2
2023/12/23 00:09:50;;;;;;;;;;;7.00;99.90;;;;;;6780681;87;20082;-81
2023/12/23 00:19:51;;;;;;;;;;;7.00;99.90;;;;;;6774456;88;20065;-80
2023/12/23 00:29:51;;;;;;;;;;;7.00;99.90;;;;;;6773464;88;20065;-80
2023/12/23 00:39:52;;;;;;;;;;;7.00;99.90;;;;;;6776357;88;20095;-81
2023/12/23 00:49:52;;;;;;;;;;;7.00;99.90;;;;;;6776009;87;20074;-82
2023/12/23 00:59:54;;;;;;;;;;;7.00;99.90;;;;;;6775869;88;20566;-82
2023/12/23 01:09:57;;;;;;;;;;;6.90;99.90;;;;;;6779923;87;20522;-81
2023/12/23 01:19:57;;;;;;;;;;;6.90;99.90;;;;;;6782947;87;20112;-81
2023/12/23 01:29:58;;;;;;;;;;;6.90;99.90;;;;;;6768005;88;20126;-82
2023/12/23 01:39:58;;;;;;;;;;;7.00;99.90;;;;;;6774770;88;20048;-82
2023/12/23 01:49:59;;;;;;;;;;;7.00;99.90;;;;;;6780100;88;20060;-80
2023/12/23 02:00:00;;;;;;;;;;;7.00;99.90;;;;;;6764725;88;20167;-80
2023/12/23 02:10:01;;;;;;;;;;;6.90;99.90;;;;;;6756243;88;20065;-80
2023/12/23 02:20:01;;;;;;;;;;;6.90;99.90;;;;;;6756750;88;20963;-81
2023/12/23 02:30:02;;;;;;;;;;;6.80;99.90;;;;;;6774421;88;20141;-82
2023/12/23 02:40:02;;;;;;;;;;;6.90;99.90;;;;;;6775194;88;20519;-80
2023/12/23 02:50:03;;;;;;;;;;;7.00;99.90;;;;;;6775337;88;20072;-81
2023/12/23 03:00:04;;;;;;;;;;;7.30;99.90;;;;;;6773557;88;20085;-80
2023/12/23 03:10:04;;;;;;;;;;;7.70;99.90;;;;;;6772829;88;20105;-81
2023/12/23 03:20:05;;;;;;;;;;;8.00;99.90;;;;;;6773623;88;20025;-82
2023/12/23 03:30:06;;;;;;;;;;;8.20;99.90;;;;;;6778047;88;20067;-83
2023/12/23 03:40:08;;;;;;;;;;;8.20;99.90;;;;;;6774614;88;20065;-81
2023/12/23 04:00:12;;;;;;;;;;;8.40;99.90;;;;;;6719522;88;20637;-77
2023/12/23 04:10:13;;;;;;;;;;;8.40;99.90;;;;;;6727926;88;20121;-77
2023/12/23 04:20:13;;;;;;;;;;;8.40;99.90;;;;;;6742036;88;20046;-77
2023/12/23 04:30:14;;;;;;;;;;;8.50;99.90;;;;;;6737658;88;20117;-77
2023/12/23 04:40:15;;;;;;;;;;;8.40;99.90;;;;;;6724840;88;20088;-78
2023/12/23 04:50:16;;;;;;;;;;;8.50;99.90;;;;;;6724977;88;20076;-78
2023/12/23 05:00:16;;;;;;;;;;;8.60;99.90;;;;;;6731445;88;20484;-78
2023/12/23 05:10:18;;;;;;;;;;;8.50;99.90;;;;;;6742271;88;20122;-77
2023/12/23 05:20:18;;;;;;;;;;;8.60;99.90;;;;;;6738425;88;20061;-77
2023/12/23 05:30:18;;;;;;;;;;;8.60;99.90;;;;;;6738955;88;20120;-77
2023/12/23 05:40:19;;;;;;;;;;;8.50;99.90;;;;;;6735901;88;20566;-77
2023/12/23 05:50:19;;;;;;;;;;;8.60;99.90;;;;;;6738691;88;20054;-76
2023/12/23 06:00:20;;;;;;;;;;;8.60;99.90;;;;;;6752768;88;20813;-77
2023/12/23 06:10:21;;;;;;;;;;;8.80;99.90;;;;;;6745339;88;20061;-77
2023/12/23 06:20:21;;;;;;;;;;;8.80;99.90;;;;;;6740992;88;20066;-77
2023/12/23 06:30:22;;;;;;;;;;;8.80;99.90;;;;;;6753200;88;20073;-78
2023/12/23 06:40:23;;;;;;;;;;;8.90;99.90;;;;;;6752991;88;20059;-78
2023/12/23 06:50:23;;;;;;;;;;;8.80;99.90;;;;;;6756116;87;20349;-77
2023/12/23 07:00:24;;;;;;;;;;;8.80;99.90;;;;;;6757603;88;20054;-77
2023/12/23 07:10:24;;;;;;;;;;;8.70;99.90;;;;;;6755431;88;20098;-77
2023/12/23 07:20:24;;;;;;;;;;;8.80;99.90;;;;;;6751323;88;20179;-78
2023/12/23 07:30:25;;;;;;;;;;;8.80;99.90;;;;;;6754577;88;20065;-77
2023/12/23 07:40:25;;;;;;;;;;;8.90;99.90;;;;;;6751325;88;20594;-78
2023/12/23 07:50:26;;;;;;;;;;;8.90;99.90;;;;;;6754162;88;20161;-78
2023/12/23 08:00:27;;;;;;;;;;;8.90;99.90;;;;;;6743859;88;20057;-78
2023/12/23 08:10:28;;;;;;;;;;;9.00;99.90;;;;;;6737110;88;20130;-78
2023/12/23 08:20:28;;;;;;;;;;;9.00;99.90;;;;;;6725636;88;20058;-79
2023/12/23 08:30:29;;;;;;;;;;;9.10;99.90;;;;;;6738326;88;20070;-78
2023/12/23 08:40:29;;;;;;;;;;;9.20;99.90;;;;;;6751767;88;20046;-79
2023/12/23 08:50:29;;;;;;;;;;;9.40;99.90;;;;;;6748750;88;20525;-78
2023/12/23 09:00:31;;;;;;;;;;;9.40;99.90;;;;;;6764873;88;20118;-79
2023/12/23 09:10:31;;;;;;;;;;;9.40;99.90;;;;;;6775870;88;20044;-79
2023/12/23 09:20:32;;;;;;;;;;;9.60;99.90;;;;;;6761449;88;20061;-78
2023/12/23 09:30:32;;;;;;;;;;;9.70;99.90;;;;;;6756393;88;20093;-78
2023/12/23 09:40:33;;;;;;;;;;;9.80;99.90;;;;;;6739503;88;20086;-79
2023/12/23 09:50:33;;;;;;;;;;;9.80;99.90;;;;;;6752457;87;20137;-78
2023/12/23 10:00:54;;;;;;;;;;;9.90;99.90;;;;;;6755418;77;20066;-81
2023/12/23 10:10:54;;;;;;;;;;;10.00;99.90;;;;;;6723785;88;20072;-82
2023/12/23 10:20:55;;;;;;;;;;;10.10;99.90;;;;;;6725640;88;20055;-83
2023/12/23 10:30:59;;;;;;;;;;;10.10;99.90;;;;;;6717151;88;20051;-83
2023/12/23 10:41:15;;;;;;;;;;;10.10;99.90;;;;;;6704770;88;20144;-82
2023/12/23 10:51:15;;;;;;;;;;;9.90;99.90;;;;;;6712365;88;20084;-80
2023/12/23 11:01:18;;;;;;;;;;;9.80;99.90;;;;;;6712004;88;20062;-80
2023/12/23 11:11:19;;;;;;;;;;;10.00;99.90;;;;;;6746585;88;20113;-79
2023/12/23 11:21:20;;;;;;;;;;;10.10;99.90;;;;;;6711568;88;20057;-80
2023/12/23 11:31:21;;;;;;;;;;;10.00;99.90;;;;;;6736312;88;20094;-81
2023/12/23 11:41:21;;;;;;;;;;;10.10;99.90;;;;;;6746519;88;20095;-81
2023/12/23 11:51:22;;;;;;;;;;;10.10;99.90;;;;;;6748881;88;20115;-81
2023/12/23 12:01:22;;;;;;;;;;;10.20;99.90;;;;;;6745673;88;20051;-79
2023/12/23 12:11:24;;;;;;;;;;;10.30;99.90;;;;;;6751173;88;20104;-82
2023/12/23 12:21:25;;;;;;;;;;;10.40;99.90;;;;;;6755438;88;20070;-83
2023/12/23 12:31:25;;;;;;;;;;;10.50;99.90;;;;;;6754798;88;20161;-82
2023/12/23 12:41:26;;;;;;;;;;;10.70;99.90;;;;;;6756152;88;20149;-83
2023/12/23 12:51:26;;;;;;;;;;;10.80;99.90;;;;;;6738191;88;20500;-82
2023/12/23 13:01:27;;;;;;;;;;;10.80;99.90;;;;;;6737666;88;20599;-82
2023/12/23 13:11:27;;;;;;;;;;;10.90;99.90;;;;;;6737684;88;20058;-82
2023/12/23 13:21:28;;;;;;;;;;;10.90;99.90;;;;;;6738256;88;20168;-82
2023/12/23 13:31:28;;;;;;;;;;;10.90;99.90;;;;;;6739426;88;20049;-82
2023/12/23 13:41:29;;;;;;;;;;;10.80;99.90;;;;;;6742394;88;20075;-83
2023/12/23 13:51:29;;;;;;;;;;;10.60;99.90;;;;;;6738625;88;20055;-82
2023/12/23 14:01:29;;;;;;;;;;;10.60;99.90;;;;;;6743366;88;20050;-83
2023/12/23 14:11:30;;;;;;;;;;;10.50;99.90;;;;;;6739665;88;20688;-83
2023/12/23 14:31:34;;;;;;;;;;;10.10;99.90;;;;;;6798912;87;20827;-84
2023/12/23 14:41:34;;;;;;;;;;;10.10;99.90;;;;;;6799608;87;20084;-85
2023/12/23 14:51:36;;;;;;;;;;;10.30;99.90;;;;;;6803180;87;20732;-84
2023/12/23 15:01:36;;;;;;;;;;;10.40;99.90;;;;;;6798246;87;20133;-85
2023/12/23 15:11:37;;;;;;;;;;;10.40;99.90;;;;;;6802438;87;20032;-85
2023/12/23 15:21:37;;;;;;;;;;;10.50;99.90;;;;;;6802292;87;20083;-85
2023/12/23 15:31:38;;;;;;;;;;;10.40;99.90;;;;;;6802312;87;20049;-85
2023/12/23 15:41:38;;;;;;;;;;;10.40;99.90;;;;;;6801996;87;20021;-85
2023/12/23 15:51:39;;;;;;;;;;;10.50;99.90;;;;;;6797762;87;20041;-85
2023/12/23 16:01:39;;;;;;;;;;;10.50;99.90;;;;;;6795983;87;20056;-84
2023/12/23 16:11:40;;;;;;;;;;;10.40;99.90;;;;;;6797706;87;20128;-86
2023/12/23 16:21:40;;;;;;;;;;;10.50;99.90;;;;;;6794636;87;20056;-84
2023/12/23 16:31:41;;;;;;;;;;;10.40;99.90;;;;;;6797745;87;20069;-83
2023/12/23 16:41:41;;;;;;;;;;;10.40;99.90;;;;;;6798261;87;20889;-84
2023/12/23 16:51:41;;;;;;;;;;;10.40;99.90;;;;;;6798820;87;20054;-84
2023/12/23 17:01:42;;;;;;;;;;;10.50;99.90;;;;;;6799520;87;20052;-85
2023/12/23 17:11:42;;;;;;;;;;;10.40;99.90;;;;;;6797427;87;20500;-84
2023/12/23 17:21:44;;;;;;;;;;;10.40;99.90;;;;;;6800261;87;20052;-83
2023/12/23 17:31:44;;;;;;;;;;;10.50;99.90;;;;;;6799198;87;20077;-81
2023/12/23 17:41:45;;;;;;;;;;;10.40;99.90;;;;;;6787773;87;20089;-81
2023/12/23 17:51:45;;;;;;;;;;;10.30;99.90;;;;;;6782387;87;20096;-82
2023/12/23 18:01:45;;;;;;;;;;;10.40;99.90;;;;;;6720680;88;20055;-83
2023/12/23 18:11:46;;;;;;;;;;;10.30;99.90;;;;;;6709681;88;20073;-83
2023/12/23 18:21:46;;;;;;;;;;;10.20;99.90;;;;;;6710198;88;20063;-82
2023/12/23 18:31:47;;;;;;;;;;;10.20;99.90;;;;;;6705572;89;20060;-81
2023/12/23 18:41:47;;;;;;;;;;;10.20;99.90;;;;;;6710258;88;20069;-83
2023/12/23 18:51:48;;;;;;;;;;;10.20;99.90;;;;;;6724456;88;20036;-82
2023/12/23 19:01:48;;;;;;;;;;;10.20;99.90;;;;;;6726303;87;20048;-83
2023/12/23 19:11:49;;;;;;;;;;;10.20;99.90;;;;;;6723371;88;20067;-82
2023/12/23 19:21:52;;;;;;;;;;;10.20;99.90;;;;;;6726310;87;20495;-83
2023/12/23 19:31:53;;;;;;;;;;;10.20;99.90;;;;;;6705730;89;20072;-84
2023/12/23 19:41:53;;;;;;;;;;;10.20;99.90;;;;;;6706020;88;20157;-83
2023/12/23 19:51:54;;;;;;;;;;;10.10;99.90;;;;;;6705792;89;20082;-83
2023/12/23 20:01:54;;;;;;;;;;;10.20;99.90;;;;;;6719184;88;20066;-84
2023/12/23 20:11:55;;;;;;;;;;;10.30;99.90;;;;;;6705944;88;20103;-82
2023/12/23 20:21:55;;;;;;;;;;;10.10;99.90;;;;;;6722033;87;20060;-82
2023/12/23 20:31:56;;;;;;;;;;;10.10;99.90;;;;;;6708594;88;20059;-82
2023/12/23 20:42:04;;;;;;;;;;;10.00;99.90;;;;;;6707450;88;20072;-85
2023/12/23 20:52:05;;;;;;;;;;;10.10;99.90;;;;;;6718578;88;20213;-82
2023/12/23 21:02:07;;;;;;;;;;;10.00;99.90;;;;;;6703394;89;20078;-82
2023/12/23 21:12:07;;;;;;;;;;;9.90;99.90;;;;;;6768368;88;20071;-82
2023/12/23 21:22:08;;;;;;;;;;;10.00;99.90;;;;;;6774807;88;20492;-82
2023/12/23 21:32:08;;;;;;;;;;;9.90;99.90;;;;;;6773284;88;20061;-82
2023/12/23 21:42:09;;;;;;;;;;;10.00;99.90;;;;;;6775184;87;20056;-81
2023/12/23 21:52:09;;;;;;;;;;;10.00;99.90;;;;;;6772745;88;20070;-85
2023/12/23 22:02:10;;;;;;;;;;;10.00;99.90;;;;;;6766619;88;20048;-82
2023/12/23 22:12:10;;;;;;;;;;;10.10;99.90;;;;;;6766934;87;20085;-82
2023/12/23 22:22:11;;;;;;;;;;;10.10;99.90;;;;;;6767713;88;20136;-82
2023/12/23 22:32:11;;;;;;;;;;;10.10;99.90;;;;;;6768258;88;20102;-83
2023/12/23 22:42:12;;;;;;;;;;;10.10;99.90;;;;;;6767183;88;20838;-81
2023/12/23 22:52:13;;;;;;;;;;;10.20;99.90;;;;;;6765787;87;20157;-80
2023/12/23 23:02:13;;;;;;;;;;;10.10;99.90;;;;;;6763416;88;20186;-80
2023/12/23 23:12:13;;;;;;;;;;;10.30;99.90;;;;;;6763354;88;20066;-81
2023/12/23 23:22:14;;;;;;;;;;;10.30;99.90;;;;;;6762359;88;20061;-81
2023/12/23 23:32:14;;;;;;;;;;;10.30;99.90;;;;;;6762936;88;20071;-81
2023/12/23 23:42:18;;;;;;;;;;;10.20;99.90;;;;;;6760317;87;20108;-81
2023/12/23 23:52:18;;;;;;;;;;;10.20;99.90;;;;;;6763974;88;20068;-80
